Impacts METAR Board INFO
IDs:

KSFO - San Francisco Intl, CA, US

Updated at: 1543 UTC 23 Jan 2018
Potential Impact None Slight Moderate High
Time23/03Z 23/04Z 23/05Z 23/06Z 23/07Z 23/08Z 23/09Z 23/10Z 23/11Z 23/12Z 23/13Z 23/14Z 23/15Z
VIS10 10 10 10 10 10 10 10 10 10 10 10 10
CIG-- -- -- 34 34 36 -- -- -- -- -- 15 --
CoverSCTSCTFEWBKNBKNBKNSCTFEWFEWFEWSCTBKNSCT
FltCatVFRVFRVFRVFRVFRVFRVFRVFRVFRVFRVFRMVFRVFR
WX--------------------------
WDir280310340105060203060900190140
WSpd6 3 7 5 4 8 5 4 7 6 0 3 3
WGst-- -- -- -- -- -- -- -- -- -- -- -- --
Raw hourly METARs
KSFO 230256Z 28006KT 10SM SCT120 11/07 A3029 RMK AO2 SLP257 60000 T01060067 55003
KSFO 230356Z 31003KT 10SM SCT120 11/07 A3030 RMK AO2 SLP261 T01060072
KSFO 230456Z 34007KT 10SM FEW120 11/08 A3032 RMK AO2 SLP267 T01110078
KSFO 230556Z 01005KT 10SM BKN034 11/08 A3032 RMK AO2 SLP267 60000 T01110078 10133 20106 51010
KSFO 230656Z 05004KT 10SM BKN034 11/07 A3033 RMK AO2 SLP270 T01110067
KSFO 230756Z 06008KT 10SM FEW034 BKN036 11/07 A3032 RMK AO2 SLP268 T01060067 401440106
KSFO 230856Z 02005KT 10SM FEW026 SCT029 SCT036 11/07 A3031 RMK AO2 SLP262 T01060067 58005
KSFO 230956Z 03004KT 10SM FEW027 10/07 A3030 RMK AO2 SLP262 T01000067
KSFO 231056Z 06007KT 10SM FEW028 10/07 A3030 RMK AO2 SLP259 T01000067
KSFO 231156Z 09006KT 10SM FEW027 10/07 A3028 RMK AO2 SLP254 70020 T01000072 10111 20072 58009
KSFO 231256Z 00000KT 10SM FEW018 SCT036 08/06 A3028 RMK AO2 SLP252 T00780056
KSFO 231356Z 19003KT 10SM FEW013 BKN015 07/06 A3028 RMK AO2 SLP252 T00720056
KSFO 231456Z 14003KT 10SM FEW013 SCT160 08/06 A3028 RMK AO2 SLP253 T00830061 55000